Bay Area Logo

San Jose, CA Single Family Real Estate Listings

1346 Total Real Estate Listings * Click on table heading to sort
Date Posted Property Type Style Address Price Living Area Lot Size Price/Sq Ft.
2019-02-20 Single Family 3349 Lindmuir Drive San Jose, CA 95121 $889,000 1,799 sq. ft. 6,970 sq. ft. $494
2019-02-20 Single Family 1156 Lynbrook Way San Jose, CA 95129 $2,688,000 2,800 sq. ft. 6,534 sq. ft. $960
2019-02-19 Single Family 3656 Thousand Oaks Drive San Jose, CA 95136 $899,000 1,860 sq. ft. 6,098 sq. ft. $483
2019-02-19 Single Family Ranch 3211 Whiterose Drive San Jose, CA 95148 $1,088,000 1,531 sq. ft. 4,356 sq. ft. $711
2019-02-19 Single Family 1753 Michon Drive San Jose, CA 95124 $1,650,000 2,507 sq. ft. 6,098 sq. ft. $658
2019-02-19 Single Family 186 Cleveland Avenue San Jose, CA 95128 $799,999 734 sq. ft. 5,663 sq. ft. $1,090
2019-02-19 Single Family 85 Bascom Avenue San Jose, CA 95128 $798,500 1,154 sq. ft. 3,920 sq. ft. $692
2019-02-19 Single Family 1512 Capitol Avenue San Jose, CA 95127 $849,888 1,015 sq. ft. 8,276 sq. ft. $837
2019-02-19 Single Family 1916 Sarasota Way San Jose, CA 95122 $880,000 1,329 sq. ft. 5,227 sq. ft. $662
2019-02-19 Single Family 1723 Silverwood Drive San Jose, CA 95124 $1,299,000 2,560 sq. ft. 6,098 sq. ft. $507
2019-02-19 Single Family 10094 Roseview Drive San Jose, CA 95127 $1,599,000 4,274 sq. ft. 17,424 sq. ft. $374
2019-02-19 Single Family 1244 Canary Lane San Jose, CA 95117 $1,525,000 2,230 sq. ft. 8,712 sq. ft. $684
2019-02-19 Single Family 1358 Pine Avenue San Jose, CA 95125 $2,188,000 2,939 sq. ft. 7,841 sq. ft. $744
2019-02-19 Single Family 6433 Oberlin Way San Jose, CA 95123 $1,148,000 2,386 sq. ft. 6,098 sq. ft. $481
2019-02-19 Single Family Ranch 1161 Crescent Drive San Jose, CA 95125 $1,249,000 1,283 sq. ft. 6,534 sq. ft. $974
2019-02-19 Single Family 626 9th Street San Jose, CA 95112 $1,298,000 1,961 sq. ft. 2,178 sq. ft. $662
2019-02-19 Single Family Contemporary 4143 Malvini Drive San Jose, CA 95118 $1,589,000 2,154 sq. ft. 6,098 sq. ft. $738
2019-02-19 Single Family 6233 Cahalan Avenue San Jose, CA 95123 $1,598,000 3,315 sq. ft. 8,276 sq. ft. $482
2019-02-19 Single Family Cottage 1125 Cook Street San Jose, CA 95126 $899,888 776 sq. ft. 3,485 sq. ft. $1,160
2019-02-19 Single Family Ranch 4879 Leigh Avenue San Jose, CA 95124 $1,250,000 1,430 sq. ft. 6,534 sq. ft. $874
2019-02-19 Single Family Traditional 1008 Akio Way San Jose, CA 95120 $1,599,900 2,080 sq. ft. 8,276 sq. ft. $769
2019-02-19 Single Family 4969 Kingston Way San Jose, CA 95130 $1,698,000 1,767 sq. ft. 6,098 sq. ft. $961
2019-02-19 Single Family 759 Monroe Street San Jose, CA 95128 $1,350,000 1,758 sq. ft. 7,841 sq. ft. $768
2019-02-19 Single Family Ranch 15253 Charlotte Avenue San Jose, CA 95124 $1,498,000 1,913 sq. ft. 8,276 sq. ft. $783
2019-02-19 Single Family 5994 Crimson Drive San Jose, CA 95120 $1,585,000 2,008 sq. ft. 8,712 sq. ft. $789
2019-02-19 Single Family 5508 Oak Park Drive San Jose, CA 95129 $1,798,000 1,512 sq. ft. 6,098 sq. ft. $1,189
2019-02-19 Single Family 1294 Clemence Avenue San Jose, CA 95122 $729,000 1,120 sq. ft. 4,356 sq. ft. $651
2019-02-19 Single Family 3086 Quimby Road San Jose, CA 95148 $998,000 1,320 sq. ft. 6,098 sq. ft. $756
2019-02-19 Single Family 5050 Trenary Way San Jose, CA 95118 $999,888 1,188 sq. ft. 6,098 sq. ft. $842
2019-02-18 Single Family 2303 Amador Drive San Jose, CA 95122 $725,000 1,353 sq. ft. 4,792 sq. ft. $536
2019-02-18 Single Family 4057 Moreland Way San Jose, CA 95130 $1,299,000 1,863 sq. ft. 10,890 sq. ft. $697
2019-02-18 Single Family 2586 Custer Drive San Jose, CA 95124 $1,415,000 1,860 sq. ft. 6,534 sq. ft. $761
2019-02-18 Single Family Contemporary 3242 Gateland Court San Jose, CA 95148 $1,188,000 1,932 sq. ft. 6,970 sq. ft. $615
2019-02-18 Single Family 500 Broderick Drive San Jose, CA 95111 $929,000 1,457 sq. ft. 6,098 sq. ft. $638
2019-02-18 Single Family 1529 Jacob Avenue San Jose, CA 95118 $999,000 1,187 sq. ft. 6,098 sq. ft. $842
2019-02-17 Single Family 478 Fontanelle Court San Jose, CA 95111 $959,000 2,000 sq. ft. 6,098 sq. ft. $480
2019-02-17 Single Family Contemporary 3426 Kohler Road San Jose, CA 95148 $1,089,890 1,973 sq. ft. 6,534 sq. ft. $552
2019-02-17 Single Family 269 Livonia Place San Jose, CA 95111 $899,000 1,811 sq. ft. 2,614 sq. ft. $496
2019-02-17 Single Family Ranch 5272 Sierra Road San Jose, CA 95132 $1,448,890 2,551 sq. ft. 123,710 sq. ft. $568
2019-02-16 Single Family 3490 Tokay Way San Jose, CA 95148 $875,000 1,380 sq. ft. 6,534 sq. ft. $634
2019-02-16 Single Family 3017 Silver Estate San Jose, CA 95135 $1,299,000 2,187 sq. ft. 8,276 sq. ft. $594
2019-02-16 Single Family 1191 Curtiss Avenue San Jose, CA 95125 $1,398,890 1,116 sq. ft. 8,712 sq. ft. $1,253
2019-02-16 Single Family Contemporary 1191 Curtiss Ave San Jose, CA 95125 $1,398,890 1,116 sq. ft. 9,148 sq. ft. $1,253
2019-02-15 Single Family 4445 Park Paxton Place San Jose, CA 95136 $1,099,000 2,922 sq. ft. 6,534 sq. ft. $376
2019-02-15 Single Family 19460 Graystone Lane San Jose, CA 95120 $2,600,000 4,580 sq. ft. 94,525 sq. ft. $568
2019-02-15 Single Family Ranch 3131 Kermath Drive San Jose, CA 95132 $1,124,950 1,571 sq. ft. 6,098 sq. ft. $716
2019-02-15 Single Family 135 Corkwood Court San Jose, CA 95136 $1,249,890 2,352 sq. ft. 6,970 sq. ft. $531
2019-02-15 Single Family 2714 Barbara Way San Jose, CA 95125 $1,498,000 1,910 sq. ft. 9,148 sq. ft. $784
2019-02-15 Single Family Traditional 1849 Anne Way San Jose, CA 95124 $1,499,000 2,241 sq. ft. 6,098 sq. ft. $669
2019-02-15 Single Family 4222 Merlot Court San Jose, CA 95135 $1,599,000 2,600 sq. ft. 9,583 sq. ft. $615
2019-02-15 Single Family 6189 Chesbro Avenue San Jose, CA 95123 $1,198,000 2,124 sq. ft. 6,970 sq. ft. $564
2019-02-15 Single Family 2316 Legge Court San Jose, CA 95148 $2,499,000 5,879 sq. ft. 167,706 sq. ft. $425
2019-02-15 Single Family 1461 Lochner Drive San Jose, CA 95127 $749,000 1,000 sq. ft. 4,792 sq. ft. $749
2019-02-15 Single Family 86 Tennant Avenue San Jose, CA 95138 $898,000 1,355 sq. ft. 5,227 sq. ft. $663
2019-02-15 Single Family 274 Copco Lane San Jose, CA 95123 $899,888 2,017 sq. ft. 6,534 sq. ft. $446
2019-02-15 Single Family 5862 Cadiz Drive San Jose, CA 95123 $899,950 1,321 sq. ft. 6,534 sq. ft. $681
2019-02-15 Single Family 7251 Pinedale Court San Jose, CA 95139 $1,075,000 2,183 sq. ft. 7,405 sq. ft. $492
2019-02-15 Single Family Mediterranean 6314 Camino Verde Drive San Jose, CA 95119 $1,098,000 2,124 sq. ft. 6,098 sq. ft. $517
2019-02-15 Single Family 1910 Foxworthy Avenue San Jose, CA 95124 $1,399,000 1,700 sq. ft. 6,098 sq. ft. $823
2019-02-15 Single Family Contemporary; Traditional 4608 Hill Top View Lane San Jose, CA 95138 $2,688,000 4,488 sq. ft. 10,454 sq. ft. $599
2019-02-15 Single Family 1290 Aberford Drive San Jose, CA 95131 $1,059,000 1,499 sq. ft. 6,098 sq. ft. $706
2019-02-15 Single Family 201 Sedona Place San Jose, CA 95116 $849,000 2,104 sq. ft. 2,178 sq. ft. $404
2019-02-15 Single Family Contemporary 825 Chapman Street San Jose, CA 95126 $2,595,000 3,800 sq. ft. 12,197 sq. ft. $683
2019-02-15 Single Family 1443 Mount Palomar Drive San Jose, CA 95127 $674,888 1,200 sq. ft. 4,792 sq. ft. $562
2019-02-15 Single Family 1544 Mount Shasta Drive San Jose, CA 95127 $749,000 1,198 sq. ft. 6,970 sq. ft. $625
2019-02-15 Single Family Contemporary 34 Scharff Avenue San Jose, CA 95116 $899,999 1,739 sq. ft. 3,485 sq. ft. $518
2019-02-15 Single Family 3324 Salinas Court San Jose, CA 95132 $1,099,900 1,267 sq. ft. 10,019 sq. ft. $868
2019-02-15 Single Family Traditional 310 Copco Lane San Jose, CA 95123 $1,100,000 1,886 sq. ft. 6,098 sq. ft. $583
2019-02-15 Single Family 1673 Beck Drive San Jose, CA 95130 $1,198,000 1,680 sq. ft. 6,970 sq. ft. $713
2019-02-15 Single Family 1621 Fairlawn Avenue San Jose, CA 95125 $1,760,000 2,245 sq. ft. 9,148 sq. ft. $784
2019-02-15 Single Family Victorian 873 9th Street San Jose, CA 95112 $950,000 1,743 sq. ft. 6,534 sq. ft. $545
2019-02-14 Single Family Traditional 1460 Davis Street San Jose, CA 95126 $1,698,890 3,104 sq. ft. 10,454 sq. ft. $547
2019-02-14 Single Family 945 Curtner Avenue San Jose, CA 95125 $1,099,000 895 sq. ft. 4,792 sq. ft. $1,228
2019-02-14 Single Family Traditional 2825 Timberline Court San Jose, CA 95121 $1,149,000 1,967 sq. ft. 11,326 sq. ft. $584
2019-02-14 Single Family Mediterranean 5289 Roxburghe Court San Jose, CA 95138 $1,428,000 1,938 sq. ft. 3,920 sq. ft. $737
2019-02-14 Single Family Mediterranean 12526 Poppy Lane San Jose, CA 95127 $1,625,000 3,550 sq. ft. 15,682 sq. ft. $458
2019-02-14 Single Family 3049 Yancy Drive San Jose, CA 95148 $975,000 1,538 sq. ft. 6,098 sq. ft. $634
2019-02-14 Single Family 1502 Stockbridge Drive San Jose, CA 95130 $1,498,000 1,512 sq. ft. 7,841 sq. ft. $991
2019-02-14 Single Family Victorian 1233 Hester Avenue San Jose, CA 95126 $1,150,000 1,159 sq. ft. 4,792 sq. ft. $992
2019-02-14 Single Family 3227 Mattos Avenue San Jose, CA 95132 $1,168,000 1,248 sq. ft. 6,098 sq. ft. $936
2019-02-14 Single Family 1855 Camargo Drive San Jose, CA 95132 $1,398,000 2,012 sq. ft. 6,970 sq. ft. $695
2019-02-14 Single Family 1631 Fallbrook Avenue San Jose, CA 95130 $1,980,000 2,575 sq. ft. 6,970 sq. ft. $769
2019-02-14 Single Family 2753 El Monte Way San Jose, CA 95127 $668,000 1,088 sq. ft. 7,405 sq. ft. $614
2019-02-14 Single Family Ranch 445 Colfax Drive San Jose, CA 95123 $849,000 1,195 sq. ft. 6,098 sq. ft. $710
2019-02-14 Single Family Traditional 1556 Capitancillos Drive San Jose, CA 95120 $1,799,000 2,745 sq. ft. 8,276 sq. ft. $655
2019-02-14 Single Family Traditional 6335 Mayo Drive San Jose, CA 95123 $899,000 1,412 sq. ft. 5,663 sq. ft. $637
2019-02-14 Single Family Spanish 2362 Reno Drive San Jose, CA 95148 $998,000 2,184 sq. ft. 12,197 sq. ft. $457
2019-02-13 Single Family 995 Mills Corner Lane San Jose, CA 95122 $831,000 1,386 sq. ft. 2,614 sq. ft. $600
2019-02-13 Single Family Contemporary 995 Mills Corner Lane San Jose, CA 95122 $831,000 1,386 sq. ft. 2,614 sq. ft. $600
2019-02-13 Single Family Mediterranean 889 Menker Avenue San Jose, CA 95128 $1,588,890 2,538 sq. ft. 5,663 sq. ft. $626
2019-02-13 Single Family 64 Country Fields Lane San Jose, CA 95136 $918,000 1,773 sq. ft. 3,485 sq. ft. $518
2019-02-13 Single Family 259 Omira Drive San Jose, CA 95123 $980,000 1,617 sq. ft. 6,098 sq. ft. $606
2019-02-13 Single Family Ranch 15034 Chelsea Drive San Jose, CA 95124 $1,249,000 1,377 sq. ft. 7,841 sq. ft. $907
2019-02-13 Single Family 866 Brevins Loop San Jose, CA 95125 $1,438,000 2,654 sq. ft. 3,485 sq. ft. $542
2019-02-13 Single Family Contemporary 2050 Hayworth Drive San Jose, CA 95148 $899,000 1,693 sq. ft. 6,534 sq. ft. $531
2019-02-13 Single Family Ranch 987 Arnold Way San Jose, CA 95128 $1,149,000 1,229 sq. ft. 9,583 sq. ft. $935
2019-02-13 Single Family 424 Fenley Avenue San Jose, CA 95117 $1,399,000 1,850 sq. ft. 9,148 sq. ft. $756
2019-02-13 Single Family 2180 Pettigrew Drive San Jose, CA 95148 $975,000 1,887 sq. ft. 2,614 sq. ft. $517
2019-02-13 Single Family 174 24th Street San Jose, CA 95116 $699,000 800 sq. ft. 5,227 sq. ft. $874
2019-02-13 Single Family 4530 Lobos Avenue San Jose, CA 95111 $749,000 1,458 sq. ft. 5,227 sq. ft. $514
2019-02-13 Single Family 1739 Kyra Circle San Jose, CA 95122 $840,000 1,301 sq. ft. 3,049 sq. ft. $646
2019-02-13 Single Family Craftsman 617 15th Street San Jose, CA 95112 $829,999 900 sq. ft. 4,792 sq. ft. $922
2019-02-13 Single Family Tudor 18692 Carriage Hill Dr San Jose, CA 95120 $2,688,000 3,850 sq. ft. 40,946 sq. ft. $698
2019-02-13 Single Family Cottage 1755 Mount Pleasant Road San Jose, CA 95148 $778,999 1,152 sq. ft. 6,970 sq. ft. $676
2019-02-13 Single Family 1197 Crescent Drive San Jose, CA 95125 $2,695,000 3,526 sq. ft. 6,534 sq. ft. $764
2019-02-13 Single Family 3309 Mount Logan Drive San Jose, CA 95127 $628,888 1,056 sq. ft. 5,227 sq. ft. $596
2019-02-13 Single Family Bungalow; Craftsman 475 Autumn Court San Jose, CA 95110 $989,000 864 sq. ft. 3,920 sq. ft. $1,145
2019-02-13 Single Family 1884 Majestic Way San Jose, CA 95132 $1,050,000 1,372 sq. ft. 6,534 sq. ft. $765
2019-02-13 Single Family Contemporary 4111 Feafel Drive San Jose, CA 95134 $1,399,000 1,616 sq. ft. 3,049 sq. ft. $866
2019-02-13 Single Family Ranch 969 Gerard Way San Jose, CA 95127 $689,000 1,203 sq. ft. 10,019 sq. ft. $573
2019-02-13 Single Family 1764 Valhalla Court San Jose, CA 95132 $1,199,890 1,536 sq. ft. 6,098 sq. ft. $781
2019-02-13 Single Family Mediterranean 1033 Broadway Avenue San Jose, CA 95125 $2,249,000 2,843 sq. ft. 6,534 sq. ft. $791
2019-02-13 Single Family Contemporary 260 Los Palmos Way San Jose, CA 95119 $1,265,000 2,253 sq. ft. 6,098 sq. ft. $561
2019-02-12 Single Family Ranch 1659 Salisbury Drive San Jose, CA 95124 $1,350,000 1,998 sq. ft. 6,098 sq. ft. $676
2019-02-12 Single Family 1919 Perrone Circle San Jose, CA 95116 $779,000 1,306 sq. ft. 3,485 sq. ft. $596
2019-02-12 Single Family Traditional 2055 Heather Glen Drive San Jose, CA 95130 $1,899,950 2,683 sq. ft. 4,792 sq. ft. $708
2019-02-12 Single Family Ranch 157 Cheltenham Way San Jose, CA 95139 $996,500 1,743 sq. ft. 6,534 sq. ft. $572
2019-02-12 Single Family 1879 Meridian Avenue San Jose, CA 95125 $1,298,000 1,491 sq. ft. 11,326 sq. ft. $871
2019-02-12 Single Family 117 Biddleford Court San Jose, CA 95139 $868,888 1,286 sq. ft. 6,098 sq. ft. $676
2019-02-12 Single Family 4766 Rahway Drive San Jose, CA 95111 $835,000 1,572 sq. ft. 9,583 sq. ft. $531
2019-02-12 Single Family Contemporary 3622 Peak Drive San Jose, CA 95127 $1,200,000 2,261 sq. ft. 21,344 sq. ft. $531
2019-02-12 Single Family 3226 Sylvan Drive San Jose, CA 95148 $825,000 1,584 sq. ft. 6,098 sq. ft. $521
2019-02-12 Single Family 5318 Larchwood Drive San Jose, CA 95118 $965,000 1,622 sq. ft. 6,970 sq. ft. $595
2019-02-12 Single Family 357 Henderson Drive San Jose, CA 95123 $988,888 1,410 sq. ft. 6,970 sq. ft. $701
2019-02-12 Single Family 1873 Harris Avenue San Jose, CA 95124 $1,298,000 1,481 sq. ft. 8,276 sq. ft. $876
2019-02-12 Single Family 5110 Northlawn Drive San Jose, CA 95130 $1,475,000 1,250 sq. ft. 6,970 sq. ft. $1,180
2019-02-12 Single Family 585 Continental Drive San Jose, CA 95111 $785,000 1,761 sq. ft. 5,663 sq. ft. $446
2019-02-12 Single Family 2184 Lakewood Drive San Jose, CA 95132 $948,888 1,165 sq. ft. 6,098 sq. ft. $814
2019-02-12 Single Family 875 Ironwood Drive San Jose, CA 95125 $988,000 1,270 sq. ft. 6,098 sq. ft. $778
2019-02-12 Single Family Ranch 1654 Noreen Drive San Jose, CA 95124 $1,325,000 1,785 sq. ft. 6,098 sq. ft. $742
2019-02-12 Single Family 4865 Kingbrook Drive San Jose, CA 95124 $1,675,000 1,709 sq. ft. 6,970 sq. ft. $980
2019-02-12 Single Family 6637 San Anselmo Way San Jose, CA 95119 $950,000 2,010 sq. ft. 6,098 sq. ft. $473
2019-02-12 Single Family Traditional 1431 Prelude Drive San Jose, CA 95131 $1,088,000 1,760 sq. ft. 5,663 sq. ft. $618
2019-02-12 Single Family 3520 Sydney Drive San Jose, CA 95132 $1,179,000 1,713 sq. ft. 6,098 sq. ft. $688
2019-02-12 Single Family 1515 Redmond Avenue San Jose, CA 95120 $1,700,000 2,760 sq. ft. 8,276 sq. ft. $616
2019-02-12 Single Family 585 Continental Dr San Jose, CA 95111 $785,000 1,761 sq. ft. 5,663 sq. ft. $446
2019-02-12 Single Family 4113 Cranford Circle San Jose, CA 95124 $1,398,000 2,161 sq. ft. 6,098 sq. ft. $647
2019-02-12 Single Family Ranch 897 Brentwood Drive San Jose, CA 95129 $1,498,000 1,395 sq. ft. 6,098 sq. ft. $1,074
2019-02-12 Single Family Craftsman 121 15th Street San Jose, CA 95112 $799,000 2,114 sq. ft. 6,534 sq. ft. $378
2019-02-12 Single Family 6985 Polvadero Drive San Jose, CA 95119 $815,000 1,376 sq. ft. 6,534 sq. ft. $592
2019-02-12 Single Family 1432 Yilufa Court San Jose, CA 95129 $1,999,000 2,309 sq. ft. 2,178 sq. ft. $866
2019-02-12 Single Family 379 Brookmere Drive San Jose, CA 95123 $849,000 1,350 sq. ft. 4,356 sq. ft. $629
2019-02-11 Single Family Ranch 1705 Mount Pleasant Road San Jose, CA 95148 $825,000 1,802 sq. ft. 7,405 sq. ft. $458
2019-02-11 Single Family 354 Colville Drive San Jose, CA 95123 $950,000 1,682 sq. ft. 6,098 sq. ft. $565
2019-02-11 Single Family Ranch 1175 Lynbrook Way San Jose, CA 95129 $1,895,000 1,474 sq. ft. 6,970 sq. ft. $1,286
2019-02-11 Single Family 1403 Annapolis Way San Jose, CA 95118 $1,089,000 1,408 sq. ft. 6,098 sq. ft. $773
2019-02-11 Single Family Contemporary 15280 Winton Way San Jose, CA 95124 $1,388,000 1,584 sq. ft. 9,148 sq. ft. $876
2019-02-11 Single Family Bungalow; Cottage 1899 Topeka Avenue San Jose, CA 95126 $799,956 1,442 sq. ft. 6,534 sq. ft. $555
2019-02-11 Single Family Traditional 1524 Jenvey Avenue San Jose, CA 95125 $1,648,000 2,445 sq. ft. 6,098 sq. ft. $674
2019-02-11 Single Family Ranch 3297 Walton Way San Jose, CA 95117 $1,595,000 2,461 sq. ft. 7,841 sq. ft. $648
2019-02-11 Single Family Ranch 4983 Camden Avenue San Jose, CA 95124 $979,888 1,396 sq. ft. 6,098 sq. ft. $702
2019-02-11 Single Family 1405 Sajak Avenue San Jose, CA 95131 $1,380,000 1,828 sq. ft. 3,485 sq. ft. $755
2019-02-10 Single Family Contemporary; Ranch 893 Kingfisher Drive San Jose, CA 95125 $920,000 1,302 sq. ft. 6,534 sq. ft. $707
2019-02-10 Single Family 5014 Wayland Avenue San Jose, CA 95118 $995,000 1,232 sq. ft. 6,098 sq. ft. $808
2019-02-10 Single Family Traditional 15437 Stratford Drive San Jose, CA 95124 $1,599,000 2,211 sq. ft. 19,602 sq. ft. $723
2019-02-10 Single Family 2409 Fernwood Avenue San Jose, CA 95128 $1,229,000 1,134 sq. ft. 5,227 sq. ft. $1,084
2019-02-10 Single Family 4480 Terra Brava Place San Jose, CA 95121 $2,300,000 4,280 sq. ft. 16,553 sq. ft. $537
2019-02-09 Single Family Contemporary 1267 Cathay Drive San Jose, CA 95122 $699,000 960 sq. ft. 5,663 sq. ft. $728
2019-02-09 Single Family 5746 Santa Teresa Boulevard San Jose, CA 95123 $880,000 1,764 sq. ft. 7,405 sq. ft. $499
2019-02-09 Single Family Tudor 1330 Hester Avenue San Jose, CA 95126 $1,550,000 1,635 sq. ft. 3,920 sq. ft. $948
2019-02-09 Single Family Traditional 3774 Caravella Drive San Jose, CA 95117 $1,498,000 1,557 sq. ft. 6,970 sq. ft. $962
2019-02-09 Single Family 7287 Sleepy Creek Drive San Jose, CA 95120 $1,148,000 1,470 sq. ft. 2,614 sq. ft. $781
2019-02-09 Single Family 1315 Ladywood Court San Jose, CA 95130 $1,299,000 1,575 sq. ft. 9,583 sq. ft. $825
2019-02-08 Single Family 650 White Road San Jose, CA 95127 $799,999 1,497 sq. ft. 6,970 sq. ft. $534
2019-02-08 Single Family 1820 Sonnet Court San Jose, CA 95131 $1,198,950 2,121 sq. ft. 4,792 sq. ft. $565
2019-02-08 Single Family 3375 Mount Mckinley Drive San Jose, CA 95127 $799,000 1,815 sq. ft. 7,405 sq. ft. $440
2019-02-08 Single Family Contemporary 1602 Salamoni Ct San Jose, CA 95133 $1,049,800 1,838 sq. ft. 2,178 sq. ft. $571
2019-02-08 Single Family 435 Madison Drive San Jose, CA 95123 $988,000 1,410 sq. ft. 6,098 sq. ft. $701
2019-02-08 Single Family Bungalow 918 Chabrant Way San Jose, CA 95125 $1,249,000 1,057 sq. ft. 7,405 sq. ft. $1,182
2019-02-08 Single Family Colonial 1317 Park Pleasant Cir San Jose, CA 95127 $749,888 1,143 sq. ft. 6,098 sq. ft. $656
2019-02-08 Single Family 2321 Rupert Drive San Jose, CA 95124 $1,580,000 2,841 sq. ft. 6,098 sq. ft. $556
2019-02-08 Single Family Contemporary; Traditional 737 Colleen Drive San Jose, CA 95123 $949,000 1,409 sq. ft. 6,098 sq. ft. $674
2019-02-08 Single Family 1342 Lyonsville Lane San Jose, CA 95118 $920,000 1,196 sq. ft. 6,970 sq. ft. $769
2019-02-08 Single Family 914 Hedlund Court San Jose, CA 95123 $1,099,000 1,725 sq. ft. 7,405 sq. ft. $637
2019-02-08 Single Family Ranch 1821 Rosswood Drive San Jose, CA 95124 $1,199,000 1,240 sq. ft. 6,970 sq. ft. $967
2019-02-08 Single Family 2409 Apsis Avenue San Jose, CA 95124 $1,399,900 1,539 sq. ft. 4,792 sq. ft. $910
2019-02-08 Single Family 1292 Matterhorn Drive San Jose, CA 95132 $1,100,000 1,460 sq. ft. 6,098 sq. ft. $753
2019-02-08 Single Family 2030 Ellen Avenue San Jose, CA 95125 $1,748,000 2,236 sq. ft. 5,227 sq. ft. $782
2019-02-08 Single Family 1602 Salamoni Court San Jose, CA 95133 $1,049,800 1,838 sq. ft. 2,178 sq. ft. $571
2019-02-08 Single Family 299 Rayos Del Sol Drive San Jose, CA 95116 $945,000 2,196 sq. ft. 3,049 sq. ft. $430
2019-02-08 Single Family 1067 Almaden Village Lane San Jose, CA 95120 $1,098,000 1,673 sq. ft. 2,614 sq. ft. $656
2019-02-08 Single Family 450 Royale Park Drive San Jose, CA 95136 $1,349,000 2,124 sq. ft. 7,405 sq. ft. $635
2019-02-08 Single Family 1893 Park Avenue San Jose, CA 95126 $1,660,000 2,127 sq. ft. 3,920 sq. ft. $780
2019-02-07 Single Family 3534 Chablis Circle San Jose, CA 95132 $1,150,000 1,629 sq. ft. 6,970 sq. ft. $706
2019-02-07 Single Family Mediterranean 5621 Morningside Drive San Jose, CA 95138 $1,848,000 2,833 sq. ft. 7,841 sq. ft. $652
2019-02-07 Single Family Traditional 1747 Emory Street San Jose, CA 95126 $1,950,000 2,305 sq. ft. 6,098 sq. ft. $846
2019-02-07 Single Family 1511 Wabash Avenue San Jose, CA 95002 $499,000 935 sq. ft. 6,098 sq. ft. $534
2019-02-07 Single Family 2382 Mather Drive San Jose, CA 95116 $595,000 933 sq. ft. 3,920 sq. ft. $638
2019-02-07 Single Family Ranch 1438 Willowmont Avenue San Jose, CA 95118 $1,078,890 1,198 sq. ft. 7,841 sq. ft. $901
2019-02-07 Single Family 1685 Peony Lane San Jose, CA 95124 $1,675,000 2,096 sq. ft. 10,890 sq. ft. $799
2019-02-07 Single Family 3449 Mount Prieta Drive San Jose, CA 95127 $759,000 1,426 sq. ft. 5,663 sq. ft. $532
2019-02-07 Single Family 111 Houlton Court San Jose, CA 95139 $878,000 1,174 sq. ft. 6,098 sq. ft. $748
2019-02-07 Single Family 5125 Baralay Place San Jose, CA 95136 $998,000 1,915 sq. ft. 7,405 sq. ft. $521
2019-02-07 Single Family 7227 Via Bella San Jose, CA 95139 $1,048,000 2,345 sq. ft. 6,534 sq. ft. $447
2019-02-07 Single Family 1145 Roy Avenue San Jose, CA 95125 $1,099,000 930 sq. ft. 6,534 sq. ft. $1,182
2019-02-07 Single Family 2569 Booksin Avenue San Jose, CA 95125 $1,475,000 1,783 sq. ft. 6,534 sq. ft. $827
2019-02-07 Single Family 2915 Agua Vista Drive San Jose, CA 95132 $1,195,000 2,500 sq. ft. 6,098 sq. ft. $478
2019-02-07 Single Family 21243 Bertram Road San Jose, CA 95120 $950,000 1,544 sq. ft. 13,939 sq. ft. $615
2019-02-07 Single Family 2164 Arleen Way San Jose, CA 95130 $1,595,000 1,676 sq. ft. 6,534 sq. ft. $952
2019-02-07 Single Family 3219 Tulipwood Lane San Jose, CA 95132 $998,000 1,361 sq. ft. 6,098 sq. ft. $733
2019-02-07 Single Family 1460 Bahama Way San Jose, CA 95122 $670,000 960 sq. ft. 4,792 sq. ft. $698
2019-02-07 Single Family 471 Halsey Avenue San Jose, CA 95128 $1,098,890 1,476 sq. ft. 5,663 sq. ft. $744
2019-02-07 Single Family 4825 Grimsby Drive San Jose, CA 95130 $1,300,000 1,181 sq. ft. 5,663 sq. ft. $1,101
2019-02-07 Single Family 2249 Hikido Drive San Jose, CA 95131 $898,000 1,305 sq. ft. 6,098 sq. ft. $688
2019-02-07 Single Family Ranch 15740 Simoni Drive San Jose, CA 95127 $1,295,000 2,426 sq. ft. 18,731 sq. ft. $534
2019-02-07 Single Family 1031 Byerley Avenue San Jose, CA 95125 $2,099,000 3,010 sq. ft. 6,970 sq. ft. $697
2019-02-07 Single Family 5838 Pala Mesa Drive San Jose, CA 95123 $1,270,000 2,192 sq. ft. 3,920 sq. ft. $579
2019-02-07 Single Family 1724 San Antonio Street San Jose, CA 95116 $865,000 2,156 sq. ft. 12,197 sq. ft. $401
2019-02-07 Single Family 5039 Doyle Road San Jose, CA 95129 $1,400,000 1,460 sq. ft. 6,534 sq. ft. $959
2019-02-06 Single Family Contemporary 563 Kings Cross Way San Jose, CA 95136 $948,800 1,374 sq. ft. 6,098 sq. ft. $691
2019-02-06 Single Family 5035 Bucknall Road San Jose, CA 95130 $1,549,000 1,732 sq. ft. 6,098 sq. ft. $894
2019-02-06 Single Family 6967 Del Rio Drive San Jose, CA 95119 $949,888 1,343 sq. ft. 6,534 sq. ft. $707
2019-02-06 Single Family Contemporary 1961 Seabee Place San Jose, CA 95133 $1,338,000 2,124 sq. ft. 7,405 sq. ft. $630
2019-02-06 Single Family Spanish 1015 Lincoln Court San Jose, CA 95125 $2,399,000 2,928 sq. ft. 6,534 sq. ft. $819
2019-02-06 Single Family Ranch 1344 Sandalwood Court San Jose, CA 95127 $750,000 1,145 sq. ft. 9,583 sq. ft. $655
2019-02-06 Single Family 1720 Ewer Drive San Jose, CA 95124 $1,549,000 1,920 sq. ft. 11,761 sq. ft. $807
2019-02-06 Single Family 14154 Lucian Avenue San Jose, CA 95127 $860,000 1,033 sq. ft. 6,970 sq. ft. $833
2019-02-06 Single Family 1758 Lorenzen Drive San Jose, CA 95124 $1,499,000 2,326 sq. ft. 6,970 sq. ft. $644
2019-02-06 Single Family 1414 Oak Knoll Drive San Jose, CA 95129 $2,498,000 2,975 sq. ft. 6,970 sq. ft. $840
2019-02-06 Single Family 13152 Water Street San Jose, CA 95111 $1,045,000 1,118 sq. ft. 9,583 sq. ft. $935
2019-02-06 Single Family 1178 Spencer Avenue San Jose, CA 95125 $1,150,000 1,138 sq. ft. 5,663 sq. ft. $1,011
2019-02-06 Single Family 2347 Sunny Vista Drive San Jose, CA 95128 $1,450,000 1,660 sq. ft. 6,534 sq. ft. $873
2019-02-06 Single Family 1753 Johnston Avenue San Jose, CA 95125 $1,645,000 1,568 sq. ft. 5,227 sq. ft. $1,049
2019-02-06 Single Family 5226 Apennines Circle San Jose, CA 95138 $1,749,000 3,112 sq. ft. 10,454 sq. ft. $562
2019-02-06 Single Family Craftsman 853 Hartford Avenue San Jose, CA 95125 $1,998,000 3,223 sq. ft. 6,098 sq. ft. $620
2019-02-06 Single Family 371 Vale Drive San Jose, CA 95123 $868,000 1,143 sq. ft. 6,534 sq. ft. $759
2019-02-06 Single Family 5130 Shadow Estate San Jose, CA 95135 $1,150,000 1,507 sq. ft. 6,970 sq. ft. $763
2019-02-06 Single Family Ranch 5212 Eileen Drive San Jose, CA 95129 $2,000,000 2,091 sq. ft. 10,019 sq. ft. $956
2019-02-06 Single Family Craftsman 1232 Delmas Avenue San Jose, CA 95125 $2,149,000 3,368 sq. ft. 7,841 sq. ft. $638
2019-02-06 Single Family Ranch 1558 Hillsdale Avenue San Jose, CA 95118 $998,000 1,707 sq. ft. 6,970 sq. ft. $585
2019-02-06 Single Family 3783 Arbuckle Drive San Jose, CA 95124 $1,199,000 1,396 sq. ft. 6,534 sq. ft. $859
2019-02-06 Single Family Ranch 3219 Tulipwood Ln San Jose, CA 95132 $998,000 1,361 sq. ft. 6,098 sq. ft. $733
2019-02-06 Single Family 5825 Snell Avenue San Jose, CA 95123 $880,000 1,173 sq. ft. 6,098 sq. ft. $750
2019-02-06 Single Family Contemporary; Custom 3995 Claitor Way San Jose, CA 95132 $1,598,000 2,120 sq. ft. 47,916 sq. ft. $754
2019-02-06 Single Family 2000 Conifer Lane San Jose, CA 95132 $1,125,000 1,789 sq. ft. 6,098 sq. ft. $629
2019-02-06 Single Family Traditional 3534 Chablis Cir San Jose, CA 95132 $1,150,000 1,629 sq. ft. 6,534 sq. ft. $706
2019-02-05 Single Family Traditional 97 Basch Avenue San Jose, CA 95116 $690,000 832 sq. ft. 5,227 sq. ft. $829
2019-02-05 Single Family 1213 Panoche Avenue San Jose, CA 95122 $869,999 1,548 sq. ft. 2,614 sq. ft. $562
2019-02-05 Single Family 612 Skyway Drive San Jose, CA 95111 $849,000 1,808 sq. ft. 2,614 sq. ft. $470
2019-02-05 Single Family Traditional 3886 Heppner Lane San Jose, CA 95136 $1,075,000 1,781 sq. ft. 6,970 sq. ft. $604
2019-02-05 Single Family 2297 Lansford Avenue San Jose, CA 95125 $1,499,000 1,852 sq. ft. 7,405 sq. ft. $809
2019-02-05 Single Family Ranch 4758 Rahway Drive San Jose, CA 95111 $799,000 1,287 sq. ft. 7,841 sq. ft. $621
2019-02-05 Single Family Traditional 440 Avenida Del Roble San Jose, CA 95123 $998,000 1,844 sq. ft. 6,098 sq. ft. $541
2019-02-05 Single Family Ranch 1322 Britton Avenue San Jose, CA 95125 $1,698,000 1,804 sq. ft. 6,970 sq. ft. $941
2019-02-05 Single Family 180 21st Street San Jose, CA 95116 $675,000 1,022 sq. ft. 4,792 sq. ft. $660
2019-02-05 Single Family 1763 Fallbrook Avenue San Jose, CA 95130 $999,000 1,035 sq. ft. 6,098 sq. ft. $965
2019-02-05 Single Family 4176 Olga Drive San Jose, CA 95117 $1,468,000 1,868 sq. ft. 2,178 sq. ft. $786
2019-02-05 Single Family 3248 Adamswood Drive San Jose, CA 95148 $1,129,000 1,767 sq. ft. 6,534 sq. ft. $639
2019-02-05 Single Family 3338 Golf Drive San Jose, CA 95127 $749,888 1,227 sq. ft. 4,792 sq. ft. $611
2019-02-05 Single Family Traditional 2975 Tantallon Court San Jose, CA 95132 $1,238,890 1,806 sq. ft. 11,761 sq. ft. $686
2019-02-05 Single Family Ranch 1119 Baywood Avenue San Jose, CA 95128 $1,249,000 1,240 sq. ft. 6,098 sq. ft. $1,007
2019-02-05 Single Family Contemporary 5878 Pala Mesa Drive San Jose, CA 95123 $1,275,800 2,451 sq. ft. 4,792 sq. ft. $521
2019-02-05 Single Family Ranch 972 Redmond Avenue San Jose, CA 95120 $1,388,000 1,859 sq. ft. 6,098 sq. ft. $747
2019-02-05 Single Family Ranch 1222 Arlington Lane San Jose, CA 95129 $1,898,000 1,503 sq. ft. 6,098 sq. ft. $1,263
2019-02-05 Single Family 3859 Polton Place Way San Jose, CA 95121 $879,900 1,355 sq. ft. 6,970 sq. ft. $649
2019-02-05 Single Family Traditional 81 17th Street San Jose, CA 95112 $999,000 1,707 sq. ft. 4,792 sq. ft. $585
2019-02-05 Single Family 5109 Southwick Court San Jose, CA 95136 $1,095,000 2,607 sq. ft. 6,534 sq. ft. $420
2019-02-05 Single Family 3033 Lantz Avenue San Jose, CA 95124 $1,150,000 1,422 sq. ft. 9,583 sq. ft. $809
2019-02-05 Single Family 2505 Huerto Drive San Jose, CA 95128 $1,199,000 1,642 sq. ft. 6,098 sq. ft. $730
2019-02-05 Single Family 952 Daffodil Way San Jose, CA 95117 $1,299,000 1,437 sq. ft. 6,098 sq. ft. $904
2019-02-05 Single Family 3750 Caravella Drive San Jose, CA 95117 $1,548,000 1,794 sq. ft. 6,534 sq. ft. $863
2019-02-05 Single Family 5148 Felter Road San Jose, CA 95132 $1,995,000 3,869 sq. ft. 125,453 sq. ft. $516
2019-02-05 Single Family Traditional 6834 Burnside Drive San Jose, CA 95120 $1,500,000 2,029 sq. ft. 7,841 sq. ft. $739
2019-02-05 Single Family 3398 Kirk Road San Jose, CA 95124 $1,248,000 1,542 sq. ft. 6,534 sq. ft. $809
2019-02-05 Single Family 6175 Dunn Avenue San Jose, CA 95123 $1,100,000 2,384 sq. ft. 6,098 sq. ft. $461
2019-02-05 Single Family Contemporary 1715 Manitou Court San Jose, CA 95120 $1,688,890 2,531 sq. ft. 8,276 sq. ft. $667
2019-02-05 Single Family Ranch 1011 Gridley Street San Jose, CA 95127 $849,900 1,075 sq. ft. 7,841 sq. ft. $791
2019-02-05 Single Family Ranch 5945 Cahalan Avenue San Jose, CA 95123 $959,000 1,321 sq. ft. 6,098 sq. ft. $726
2019-02-04 Single Family 3501 Pleasant Row Court San Jose, CA 95148 $989,000 1,783 sq. ft. 8,276 sq. ft. $555
2019-02-04 Single Family 2013 Paseo Del Sol San Jose, CA 95124 $1,650,000 2,642 sq. ft. 4,792 sq. ft. $625
2019-02-04 Single Family 210 Noyo Drive San Jose, CA 95123 $898,888 1,400 sq. ft. 5,663 sq. ft. $642
2019-02-04 Single Family 4708 Rotherhaven Way San Jose, CA 95111 $976,000 1,372 sq. ft. 5,663 sq. ft. $711
2019-02-04 Single Family 1234 Redcliff Drive San Jose, CA 95118 $1,288,960 1,248 sq. ft. 6,098 sq. ft. $1,033
2019-02-04 Single Family 1312 Cristina Avenue San Jose, CA 95125 $1,750,000 2,213 sq. ft. 4,792 sq. ft. $791
2019-02-04 Single Family 3 Adelong Way San Jose, CA 95139 $740,000 792 sq. ft. 6,098 sq. ft. $934
2019-02-04 Single Family 265 Dondero Way San Jose, CA 95119 $899,000 1,503 sq. ft. 6,098 sq. ft. $598
2019-02-04 Single Family Traditional 6552 Little Falls Drive San Jose, CA 95120 $2,249,000 3,713 sq. ft. 10,454 sq. ft. $606
2019-02-04 Single Family Traditional 3886 Heppner Lane San Jose, CA 95136 $1,075,000 1,781 sq. ft. 6,970 sq. ft. $604
2019-02-04 Single Family Ranch 421 Ridgefarm Drive San Jose, CA 95123 $995,000 1,409 sq. ft. 6,098 sq. ft. $706
2019-02-04 Single Family 2206 Bello Avenue San Jose, CA 95125 $2,399,000 3,416 sq. ft. 8,276 sq. ft. $702
2019-02-04 Single Family 175 Boston Avenue San Jose, CA 95128 $980,000 1,497 sq. ft. 5,663 sq. ft. $655
2019-02-04 Single Family 679 Briar Ranch Lane San Jose, CA 95120 $1,538,000 2,640 sq. ft. 4,792 sq. ft. $583
2019-02-03 Single Family Contemporary; Traditional 315 Grandpark Circle San Jose, CA 95136 $995,000 2,553 sq. ft. 5,663 sq. ft. $390
2019-02-02 Single Family 1026 Skybo Court San Jose, CA 95120 $1,396,850 1,826 sq. ft. 2,614 sq. ft. $765
2019-02-02 Single Family 1965 Curtner Avenue San Jose, CA 95124 $1,199,500 1,800 sq. ft. 6,970 sq. ft. $666
2019-02-02 Single Family Contemporary 470 Stonefield Court San Jose, CA 95136 $1,100,000 1,704 sq. ft. 3,485 sq. ft. $646
2019-02-01 Single Family Ranch 5264 Keene Drive San Jose, CA 95124 $1,279,950 1,550 sq. ft. 6,534 sq. ft. $826
2019-02-01 Single Family Traditional 1491 Rosecrest Terrace San Jose, CA 95126 $1,849,950 2,792 sq. ft. 4,356 sq. ft. $663
2019-02-01 Single Family Custom 6350 Snell Avenue San Jose, CA 95123 $2,490,000 5,261 sq. ft. 20,038 sq. ft. $473
2019-02-01 Single Family 651 Branham Lane San Jose, CA 95136 $1,295,000 1,640 sq. ft. 7,841 sq. ft. $790
2019-02-01 Single Family 1372 Via De Los Reyes San Jose, CA 95120 $1,475,000 2,203 sq. ft. 8,276 sq. ft. $670
2019-02-01 Single Family 3262 Dias Drive San Jose, CA 95148 $888,888 1,800 sq. ft. 6,534 sq. ft. $494
2019-02-01 Single Family Traditional 760 El Sombroso Drive San Jose, CA 95123 $998,888 2,283 sq. ft. 6,098 sq. ft. $438
2019-02-01 Single Family 5532 Sunspring Circle San Jose, CA 95138 $840,000 1,498 sq. ft. 3,485 sq. ft. $561
2019-02-01 Single Family 1164 Sandstone Lane San Jose, CA 95132 $1,180,000 1,497 sq. ft. 6,098 sq. ft. $788
2019-02-01 Single Family 311 Battle Dance Drive San Jose, CA 95111 $789,900 1,359 sq. ft. 6,534 sq. ft. $581
2019-02-01 Single Family Traditional 6174 Glider Drive San Jose, CA 95123 $998,500 1,695 sq. ft. 6,098 sq. ft. $589
2019-02-01 Single Family 1034 Almarida Drive San Jose, CA 95128 $1,288,000 2,102 sq. ft. 7,405 sq. ft. $613
2019-02-01 Single Family Ranch; Traditional 2670 Westberry Dr San Jose, CA 95132 $1,222,000 1,598 sq. ft. 6,098 sq. ft. $765
2019-02-01 Single Family 1984 Meridian Avenue San Jose, CA 95125 $1,350,000 1,773 sq. ft. 10,019 sq. ft. $761
2019-02-01 Single Family Traditional 12 Fortrose Court San Jose, CA 95139 $849,800 1,457 sq. ft. 9,583 sq. ft. $583
2019-02-01 Single Family Traditional 1544 Montellano Drive San Jose, CA 95120 $1,549,000 2,033 sq. ft. 7,841 sq. ft. $762
2019-02-01 Single Family Ranch 4099 San Bernardino Way San Jose, CA 95111 $788,000 1,621 sq. ft. 4,792 sq. ft. $486
2019-02-01 Single Family Contemporary 1517 Santa Monica Avenue San Jose, CA 95118 $1,398,000 1,881 sq. ft. 6,098 sq. ft. $743
2019-02-01 Single Family Ranch 1125 Oakview Road San Jose, CA 95121 $650,000 1,074 sq. ft. 3,485 sq. ft. $605
2019-02-01 Single Family Ranch 2516 Cordoba Way San Jose, CA 95125 $1,298,800 1,584 sq. ft. 6,534 sq. ft. $820
2019-01-31 Single Family 1828 Lavender Creek San Jose, CA 95120 $1,700,000 2,393 sq. ft. 3,485 sq. ft. $710
2019-01-31 Single Family Ranch 3577 Calico Avenue San Jose, CA 95124 $1,150,000 1,234 sq. ft. 6,098 sq. ft. $932
2019-01-31 Single Family 2150 The Alameda San Jose, CA 95126 $1,388,890 2,510 sq. ft. 7,841 sq. ft. $553
2019-01-31 Single Family 6334 Lillian Way San Jose, CA 95120 $1,488,000 1,923 sq. ft. 6,098 sq. ft. $774
2019-01-31 Single Family 2670 Westberry Drive San Jose, CA 95132 $1,222,000 1,598 sq. ft. 6,098 sq. ft. $765
2019-01-31 Single Family Ranch 918 Radcliffe Drive San Jose, CA 95117 $1,799,000 2,888 sq. ft. 7,841 sq. ft. $623
2019-01-31 Single Family 217 Sherry Court San Jose, CA 95119 $829,000 1,392 sq. ft. 6,098 sq. ft. $596
2019-01-31 Single Family 4070 Sacramento Avenue San Jose, CA 95111 $750,000 1,070 sq. ft. 7,405 sq. ft. $701
2019-01-31 Single Family Ranch 3304 Farthing Way San Jose, CA 95132 $1,199,890 1,577 sq. ft. 6,534 sq. ft. $761
2019-01-31 Single Family 139 Haverhill Court San Jose, CA 95139 $899,999 1,822 sq. ft. 6,098 sq. ft. $494
2019-01-31 Single Family 2809 Silver Estate San Jose, CA 95135 $1,075,000 1,728 sq. ft. 6,970 sq. ft. $622
2019-01-31 Single Family Contemporary 2181 Carobwood Lane San Jose, CA 95132 $1,200,000 1,629 sq. ft. 6,098 sq. ft. $737
2019-01-31 Single Family Ranch 3304 Farthing Way San Jose, CA 95132 $1,199,890 1,577 sq. ft. 6,534 sq. ft. $761
2019-01-31 Single Family 486 Nerdy Avenue San Jose, CA 95111 $789,000 1,215 sq. ft. 4,792 sq. ft. $649
2019-01-31 Single Family Traditional 1461 Portobelo Drive San Jose, CA 95118 $1,299,000 1,937 sq. ft. 6,534 sq. ft. $671
2019-01-31 Single Family Cape Cod 1324 Cherry Avenue San Jose, CA 95125 $3,295,000 4,312 sq. ft. 10,019 sq. ft. $764
2019-01-31 Single Family 5047 Pearl Avenue San Jose, CA 95136 $999,000 1,683 sq. ft. 6,534 sq. ft. $594
2019-01-31 Single Family 1672 Via Campagna San Jose, CA 95120 $1,398,000 1,820 sq. ft. 3,485 sq. ft. $768
2019-01-31 Single Family 1396 Cordelia Avenue San Jose, CA 95129 $2,000,000 1,747 sq. ft. 8,712 sq. ft. $1,145
2019-01-30 Single Family 3996 Luneta Court San Jose, CA 95136 $1,049,000 1,715 sq. ft. 6,970 sq. ft. $612
2019-01-30 Single Family 2063 Lynwood Terrace San Jose, CA 95128 $1,099,100 1,040 sq. ft. 6,098 sq. ft. $1,057
2019-01-30 Single Family 1772 Midfield Avenue San Jose, CA 95122 $585,000 960 sq. ft. 4,792 sq. ft. $609
2019-01-30 Single Family Bungalow 828 Pacific Avenue San Jose, CA 95126 $899,000 924 sq. ft. 4,792 sq. ft. $973
2019-01-30 Single Family 1563 June Avenue San Jose, CA 95122 $689,999 960 sq. ft. 5,227 sq. ft. $719
2019-01-30 Single Family Tudor 989 Michigan Avenue San Jose, CA 95125 $1,799,850 2,231 sq. ft. 4,792 sq. ft. $807
2019-01-30 Single Family 17851 Los Alamos Drive San Jose, CA 95130 $1,499,800 1,660 sq. ft. 10,019 sq. ft. $903
2019-01-30 Single Family 3281 Valley Square Lane San Jose, CA 95117 $1,418,000 1,975 sq. ft. 8,276 sq. ft. $718
2019-01-30 Single Family Ranch 2173 Dry Creek Road San Jose, CA 95124 $1,949,000 2,525 sq. ft. 24,829 sq. ft. $772
2019-01-30 Single Family Mediterranean 5501 Livorno Court San Jose, CA 95138 $2,218,000 3,991 sq. ft. 9,583 sq. ft. $556
2019-01-30 Single Family Ranch 2173 Dry Creek Rd San Jose, CA 95124 $1,949,000 2,525 sq. ft. 24,829 sq. ft. $772
2019-01-30 Single Family Ranch 1594 Koch Lane San Jose, CA 95125 $1,498,000 2,100 sq. ft. 7,841 sq. ft. $713
2019-01-30 Single Family Victorian 235 9th Street San Jose, CA 95112 $1,198,000 2,024 sq. ft. 4,792 sq. ft. $592
2019-01-29 Single Family 1602 Barberry Lane San Jose, CA 95121 $799,888 1,107 sq. ft. 7,405 sq. ft. $723
2019-01-29 Single Family Bungalow; Ranch 17231 Crothers Rd San Jose, CA 95127 $1,200,000 2,070 sq. ft. 46,609 sq. ft. $580
2019-01-29 Single Family 17231 Crothers Road San Jose, CA 95127 $1,200,000 2,070 sq. ft. 46,609 sq. ft. $580
2019-01-29 Single Family Bungalow 460 Snyder Avenue San Jose, CA 95125 $1,195,000 1,256 sq. ft. 5,227 sq. ft. $951
2019-01-29 Single Family 5238 Countryside Lane San Jose, CA 95136 $879,888 1,593 sq. ft. 3,485 sq. ft. $552
2019-01-29 Single Family 369 Sposito Circle San Jose, CA 95136 $899,950 1,426 sq. ft. 5,663 sq. ft. $631
2019-01-29 Single Family 1252 Wabash Street San Jose, CA 95002 $684,000 878 sq. ft. 6,098 sq. ft. $779
2019-01-29 Single Family Cottage 1501 Norman Avenue San Jose, CA 95125 $1,199,000 1,381 sq. ft. 10,454 sq. ft. $868
2019-01-29 Single Family 125 Azucar Avenue San Jose, CA 95111 $795,000 1,755 sq. ft. 5,663 sq. ft. $453
2019-01-29 Single Family 1534 Darlene Avenue San Jose, CA 95125 $2,100,000 2,736 sq. ft. 6,098 sq. ft. $768
2019-01-29 Single Family 312 Avenida Nogales San Jose, CA 95123 $799,000 1,440 sq. ft. 7,405 sq. ft. $555
2019-01-29 Single Family Traditional 6180 Ansdell Way San Jose, CA 95123 $959,000 1,520 sq. ft. 6,098 sq. ft. $631
2019-01-29 Single Family Ranch 6256 Rainbow Drive San Jose, CA 95129 $1,825,000 1,430 sq. ft. 6,098 sq. ft. $1,276
2019-01-29 Single Family 2191 Blossom Valley Drive San Jose, CA 95124 $1,638,000 2,040 sq. ft. 6,534 sq. ft. $803
2019-01-29 Single Family 1063 Bennett Way San Jose, CA 95125 $2,198,000 2,280 sq. ft. 5,663 sq. ft. $964
2019-01-29 Single Family Farm House 2110 Ardis Drive San Jose, CA 95125 $3,298,000 4,245 sq. ft. 11,326 sq. ft. $777
2019-01-29 Single Family 3414 Trafalgar Place San Jose, CA 95132 $1,090,000 1,412 sq. ft. 6,098 sq. ft. $772
2019-01-29 Single Family 1683 Hyacinth Lane San Jose, CA 95124 $1,295,000 1,525 sq. ft. 6,098 sq. ft. $849
2019-01-28 Single Family Contemporary 5312 Shenado Lane San Jose, CA 95136 $1,098,000 2,152 sq. ft. 3,920 sq. ft. $510
2019-01-28 Single Family 1450 Meridian Avenue San Jose, CA 95125 $1,350,000 2,100 sq. ft. 6,534 sq. ft. $643
2019-01-28 Single Family Ranch 1788 Flickinger Ave San Jose, CA 95131 $899,900 1,041 sq. ft. 5,227 sq. ft. $864
2019-01-28 Single Family 1567 Georgetta Drive San Jose, CA 95125 $1,250,000 1,159 sq. ft. 6,098 sq. ft. $1,079
2019-01-28 Single Family 4113 San Miguel Way San Jose, CA 95111 $769,900 1,123 sq. ft. 5,227 sq. ft. $686
2019-01-28 Single Family 5892 Mcgilvra Court San Jose, CA 95123 $999,000 1,683 sq. ft. 6,534 sq. ft. $594
2019-01-28 Single Family Contemporary 236 French Court San Jose, CA 95139 $1,050,000 2,553 sq. ft. 6,098 sq. ft. $411
2019-01-28 Single Family 2791 Camino Del Rey San Jose, CA 95132 $998,888 1,400 sq. ft. 6,970 sq. ft. $713
2019-01-27 Single Family 5018 Gazania Drive San Jose, CA 95111 $749,900 1,652 sq. ft. 6,098 sq. ft. $454
2019-01-27 Single Family Ranch; Traditional 358 Blossom Hill Road San Jose, CA 95123 $749,999 983 sq. ft. 6,534 sq. ft. $763
2019-01-26 Single Family 2876 Betsy Way San Jose, CA 95133 $880,000 1,144 sq. ft. 4,792 sq. ft. $769
2019-01-26 Single Family 2265 Fallingtree Drive San Jose, CA 95131 $910,000 1,041 sq. ft. 6,534 sq. ft. $874
2019-01-26 Single Family 558 Menker Avenue San Jose, CA 95128 $1,050,000 1,144 sq. ft. 6,970 sq. ft. $918
2019-01-26 Single Family Traditional 1673 River Birch Court San Jose, CA 95131 $885,000 1,647 sq. ft. 3,049 sq. ft. $537
2019-01-26 Single Family 2369 Azevedo Parkway San Jose, CA 95125 $1,250,000 1,884 sq. ft. 2,178 sq. ft. $663
2019-01-26 Single Family 2145 Emory Street San Jose, CA 95128 $1,475,000 2,900 sq. ft. 8,712 sq. ft. $509
2019-01-26 Single Family 4860 Doyle Road San Jose, CA 95129 $1,695,000 1,750 sq. ft. 7,841 sq. ft. $969
2019-01-25 Single Family Traditional 5728 Tonopah Drive San Jose, CA 95123 $924,000 1,755 sq. ft. 6,098 sq. ft. $526
2019-01-25 Single Family Traditional 1827 Laurinda Drive San Jose, CA 95124 $1,298,000 1,362 sq. ft. 6,098 sq. ft. $953
2019-01-25 Single Family 2668 Forest Hill Drive San Jose, CA 95130 $2,148,500 2,284 sq. ft. 7,405 sq. ft. $941
2019-01-25 Single Family 3460 Outlook Court San Jose, CA 95132 $1,600,000 2,133 sq. ft. 12,197 sq. ft. $750
2019-01-25 Single Family Contemporary 20675 View Oaks Way San Jose, CA 95120 $3,199,000 6,025 sq. ft. 94,525 sq. ft. $531
2019-01-25 Single Family Bungalow; Cottage 1346 Vernon Avenue San Jose, CA 95125 $898,888 939 sq. ft. 4,792 sq. ft. $957
2019-01-25 Single Family Ranch 3943 Twilight Drive San Jose, CA 95124 $1,100,000 1,552 sq. ft. 6,534 sq. ft. $709
2019-01-25 Single Family Contemporary 1278 Willowhaven Drive San Jose, CA 95126 $998,800 1,518 sq. ft. 3,485 sq. ft. $658
2019-01-25 Single Family Cottage 985 Morse Street San Jose, CA 95126 $1,000,000 1,126 sq. ft. 6,098 sq. ft. $888
2019-01-25 Single Family 3167 Jarvis Avenue San Jose, CA 95118 $1,390,000 1,702 sq. ft. 6,970 sq. ft. $817
2019-01-25 Single Family 1639 Melody Lane San Jose, CA 95133 $849,000 1,380 sq. ft. 5,663 sq. ft. $615
2019-01-25 Single Family Contemporary 1507 Pam Lane San Jose, CA 95120 $1,448,000 1,874 sq. ft. 7,841 sq. ft. $773
2019-01-25 Single Family 1178 Carnelian Drive San Jose, CA 95122 $719,950 1,034 sq. ft. 6,534 sq. ft. $696
2019-01-25 Single Family 1881 Decatur Drive San Jose, CA 95122 $675,000 1,180 sq. ft. 5,663 sq. ft. $572
2019-01-25 Single Family 6013 Salida Del Sol San Jose, CA 95123 $899,000 1,748 sq. ft. 6,098 sq. ft. $514
2019-01-25 Single Family 1094 Kitchener Circle San Jose, CA 95121 $899,800 1,586 sq. ft. 6,534 sq. ft. $567
2019-01-25 Single Family 3594 Eastridge Drive San Jose, CA 95148 $899,950 1,983 sq. ft. 7,841 sq. ft. $454
2019-01-25 Single Family 846 6th Street San Jose, CA 95112 $949,900 1,098 sq. ft. 6,970 sq. ft. $865
2019-01-25 Single Family 8696 Lomas Azules Court San Jose, CA 95135 $1,050,000 2,209 sq. ft. 3,049 sq. ft. $475
2019-01-25 Single Family 1831 Calistoga Drive San Jose, CA 95124 $1,149,890 1,226 sq. ft. 5,663 sq. ft. $938
2019-01-25 Single Family Ranch 5327 Harwood Road San Jose, CA 95124 $1,150,000 1,624 sq. ft. 6,534 sq. ft. $708
2019-01-25 Single Family Traditional 812 7th Street San Jose, CA 95112 $1,500,000 1,460 sq. ft. 16,117 sq. ft. $1,027
2019-01-25 Single Family 1362 Vallejo Drive San Jose, CA 95130 $1,600,000 2,724 sq. ft. 6,534 sq. ft. $587
2019-01-25 Single Family 1651 Santa Lucia Drive San Jose, CA 95125 $1,725,000 2,053 sq. ft. 8,712 sq. ft. $840
2019-01-25 Single Family 72 Sunset Court San Jose, CA 95116 $650,000 1,440 sq. ft. 6,534 sq. ft. $451
2019-01-25 Single Family Cottage 730 12th Street San Jose, CA 95112 $650,000 886 sq. ft. 3,920 sq. ft. $734
2019-01-25 Single Family Craftsman 860 8th Street San Jose, CA 95112 $724,888 1,410 sq. ft. 6,534 sq. ft. $514
2019-01-25 Single Family 3005 Rusch Place San Jose, CA 95111 $869,000 1,811 sq. ft. 3,049 sq. ft. $480
2019-01-25 Single Family Bungalow 786 15th Street San Jose, CA 95112 $949,000 1,350 sq. ft. 6,098 sq. ft. $703
2019-01-25 Single Family 1309 Pietro Drive San Jose, CA 95131 $1,298,000 1,662 sq. ft. 3,920 sq. ft. $781
2019-01-25 Single Family 2589 Fairdell Drive San Jose, CA 95125 $1,369,000 1,523 sq. ft. 7,841 sq. ft. $899
2019-01-25 Single Family 2964 Custer Drive San Jose, CA 95124 $1,375,000 1,631 sq. ft. 5,227 sq. ft. $843
2019-01-25 Single Family Colonial 3903 Sophist Drive San Jose, CA 95132 $1,474,890 2,418 sq. ft. 13,939 sq. ft. $610
2019-01-25 Single Family 1477 Gerhardt Avenue San Jose, CA 95125 $1,499,000 1,937 sq. ft. 8,712 sq. ft. $774
2019-01-25 Single Family Mediterranean 14782 Watters Drive San Jose, CA 95127 $1,499,910 3,496 sq. ft. 43,996 sq. ft. $429
2019-01-25 Single Family 1111 Morse Street San Jose, CA 95126 $1,598,000 950 sq. ft. 6,970 sq. ft. $1,682
2019-01-25 Single Family Traditional 1824 Constitution Court San Jose, CA 95124 $1,899,000 2,563 sq. ft. 8,276 sq. ft. $741
2019-01-25 Single Family 45 20th Street San Jose, CA 95116 $2,500,000 1,238 sq. ft. 9,583 sq. ft. $2,019
2019-01-25 Single Family Ranch 2163 Nassau Drive San Jose, CA 95122 $679,000 1,040 sq. ft. 4,792 sq. ft. $653
2019-01-25 Single Family 1764 Biscayne Way San Jose, CA 95122 $688,888 1,040 sq. ft. 5,227 sq. ft. $662
2019-01-25 Single Family Contemporary 1117 Keldon Drive San Jose, CA 95121 $845,000 1,288 sq. ft. 6,098 sq. ft. $656
2019-01-25 Single Family 3480 Gila Drive San Jose, CA 95148 $848,888 1,973 sq. ft. 6,098 sq. ft. $430
2019-01-25 Single Family 1482 Suffolk Drive San Jose, CA 95127 $889,000 1,623 sq. ft. 5,227 sq. ft. $548
2019-01-25 Single Family 390 Grey Ghost Avenue San Jose, CA 95111 $899,000 1,701 sq. ft. 6,970 sq. ft. $529
2019-01-25 Single Family 764 Willis Avenue San Jose, CA 95125 $899,000 1,232 sq. ft. 6,534 sq. ft. $730
2019-01-25 Single Family 930 Park Avenue San Jose, CA 95126 $899,550 975 sq. ft. 4,356 sq. ft. $923
2019-01-25 Single Family 5973 Tandera Avenue San Jose, CA 95123 $950,000 1,228 sq. ft. 10,019 sq. ft. $774
2019-01-25 Single Family 267 Jaggers Drive San Jose, CA 95119 $960,000 1,601 sq. ft. 6,098 sq. ft. $600
2019-01-25 Single Family 1362 Piedmont Road San Jose, CA 95132 $998,000 1,502 sq. ft. 6,098 sq. ft. $664
2019-01-25 Single Family 931 Meridian Avenue San Jose, CA 95126 $1,075,000 1,222 sq. ft. 6,970 sq. ft. $880
2019-01-25 Single Family Contemporary 1342 Forrestal Avenue San Jose, CA 95110 $1,080,000 1,342 sq. ft. 4,792 sq. ft. $805
2019-01-25 Single Family 1229 Redcliff Drive San Jose, CA 95118 $1,088,000 1,176 sq. ft. 6,534 sq. ft. $925
2019-01-25 Single Family 8857 Wine Valley Circle San Jose, CA 95135 $1,149,000 2,096 sq. ft. 9,583 sq. ft. $548
2019-01-25 Single Family Ranch 2755 Coit Drive San Jose, CA 95124 $1,198,000 1,492 sq. ft. 6,098 sq. ft. $803
2019-01-25 Single Family 2351 Newhall Street San Jose, CA 95128 $1,198,890 1,550 sq. ft. 6,098 sq. ft. $773
2019-01-25 Single Family Ranch 5072 Adair Way San Jose, CA 95124 $1,279,000 1,200 sq. ft. 7,405 sq. ft. $1,066
2019-01-25 Single Family Traditional 1584 Ballantree Way San Jose, CA 95118 $1,425,000 2,386 sq. ft. 6,970 sq. ft. $597
2019-01-25 Single Family 131 Fleming Avenue San Jose, CA 95127 $1,550,000 3,228 sq. ft. 20,038 sq. ft. $480
2019-01-25 Single Family 505 Gordon Avenue San Jose, CA 95127 $2,680,000 6,368 sq. ft. 33,106 sq. ft. $421
2019-01-25 Single Family 455 Lochridge Drive San Jose, CA 95133 $725,000 900 sq. ft. 7,405 sq. ft. $806
2019-01-25 Single Family 1290 Adrian Way San Jose, CA 95122 $729,000 1,420 sq. ft. 4,792 sq. ft. $513
2019-01-25 Single Family 2604 Rivermont Court San Jose, CA 95116 $750,000 1,176 sq. ft. 6,970 sq. ft. $638
2019-01-25 Single Family 7026 Heaton Moor Drive San Jose, CA 95119 $878,000 1,308 sq. ft. 6,098 sq. ft. $671
2019-01-25 Single Family 3022 Brandywine Drive San Jose, CA 95121 $948,800 1,757 sq. ft. 8,276 sq. ft. $540
2019-01-25 Single Family 34 George Street San Jose, CA 95110 $995,000 2,544 sq. ft. 4,792 sq. ft. $391
2019-01-25 Single Family 192 Herlong Avenue San Jose, CA 95123 $999,999 1,617 sq. ft. 5,663 sq. ft. $618
2019-01-25 Single Family 405 Ariel Drive San Jose, CA 95123 $1,038,000 1,495 sq. ft. 6,098 sq. ft. $694
2019-01-25 Single Family Spanish 4804 Via De Caballe San Jose, CA 95118 $1,200,000 1,614 sq. ft. 7,405 sq. ft. $743
2019-01-25 Single Family 2072 The Alameda San Jose, CA 95126 $1,250,000 2,768 sq. ft. 6,098 sq. ft. $452
2019-01-25 Single Family 6032 Golden Vista Drive San Jose, CA 95123 $1,275,000 2,165 sq. ft. 2,178 sq. ft. $589
2019-01-25 Single Family Ranch 3622 Julio Avenue San Jose, CA 95124 $1,295,000 1,975 sq. ft. 7,405 sq. ft. $656
2019-01-25 Single Family 175 Clayton Avenue San Jose, CA 95110 $1,399,000 1,846 sq. ft. 4,356 sq. ft. $758
2019-01-25 Single Family 799 Portswood Circle San Jose, CA 95120 $1,424,890 2,216 sq. ft. 8,276 sq. ft. $643
2019-01-25 Single Family 1993 Cherry Avenue San Jose, CA 95125 $1,450,000 2,138 sq. ft. 7,841 sq. ft. $678
2019-01-25 Single Family Contemporary 5611 Blossom Ave San Jose, CA 95123 $879,000 1,037 sq. ft. 7,841 sq. ft. $848
2019-01-25 Single Family Traditional 4649 Paloma Ave San Jose, CA 95111 $799,900 1,363 sq. ft. 6,534 sq. ft. $587
2019-01-25 Single Family Ranch 580 Edelweiss Dr San Jose, CA 95136 $899,999 1,424 sq. ft. 7,841 sq. ft. $632
2019-01-25 Single Family Contemporary 267 Jaggers Drive San Jose, CA 95119 $960,000 1,601 sq. ft. 6,098 sq. ft. $600
2019-01-25 Single Family Contemporary 4656 Marbella Court San Jose, CA 95124 $1,500,000 1,840 sq. ft. 7,405 sq. ft. $815
2019-01-25 Single Family Contemporary 507 Bascom San Jose, CA 95128 $1,150,000 1,190 sq. ft. 5,227 sq. ft. $966
2019-01-25 Single Family 1183 Valdosta Road Road San Jose, CA 95121 $720,000 1,196 sq. ft. 3,485 sq. ft. $602
2019-01-25 Single Family Custom 315 Julian San Jose, CA 95112 $849,000 1,104 sq. ft. 4,792 sq. ft. $769
2019-01-24 Single Family Mediterranean 5845 Pistoia Way San Jose, CA 95138 $1,699,000 2,485 sq. ft. 4,792 sq. ft. $684
2019-01-24 Single Family Traditional 2606 Mabury Square San Jose, CA 95133 $925,000 1,699 sq. ft. 4,356 sq. ft. $544
2019-01-24 Single Family Mediterranean 812 Altino Boulevard San Jose, CA 95136 $999,888 1,743 sq. ft. 1,742 sq. ft. $574
2019-01-24 Single Family 2136 Provenmill Way San Jose, CA 95121 $845,000 1,330 sq. ft. 6,534 sq. ft. $635
2019-01-24 Single Family Mediterranean 5392 Alum Rock Avenue San Jose, CA 95127 $1,250,000 2,348 sq. ft. 8,712 sq. ft. $532
2019-01-24 Single Family 2707 Dumbarton Avenue San Jose, CA 95124 $1,299,000 1,478 sq. ft. 6,534 sq. ft. $879
2019-01-24 Single Family Contemporary 4656 Marbella Court San Jose, CA 95124 $1,500,000 1,840 sq. ft. 7,405 sq. ft. $815
2019-01-24 Single Family Ranch 3353 Hilary Drive San Jose, CA 95124 $1,425,000 1,984 sq. ft. 6,098 sq. ft. $718
2019-01-24 Single Family 2778 Mclaughlin Avenue San Jose, CA 95121 $799,950 1,624 sq. ft. 6,098 sq. ft. $493
2019-01-24 Single Family 6281 Mahan Drive San Jose, CA 95123 $998,888 1,412 sq. ft. 5,663 sq. ft. $707
2019-01-24 Single Family 3183 Whiteleaf Court San Jose, CA 95148 $998,000 1,322 sq. ft. 5,227 sq. ft. $755
2019-01-24 Single Family 4019 Ross Avenue San Jose, CA 95124 $1,199,000 1,200 sq. ft. 7,405 sq. ft. $999
2019-01-24 Single Family Craftsman 1250 Fremont Street San Jose, CA 95126 $1,650,000 1,818 sq. ft. 5,227 sq. ft. $908
2019-01-24 Single Family 464 Mccamish Avenue San Jose, CA 95123 $949,999 1,562 sq. ft. 5,663 sq. ft. $608
2019-01-24 Single Family Ranch 1859 Nelson Way San Jose, CA 95124 $1,129,000 1,605 sq. ft. 6,534 sq. ft. $703
2019-01-24 Single Family 2606 Mabury Square San Jose, CA 95133 $925,000 1,699 sq. ft. 4,356 sq. ft. $544
2019-01-24 Single Family 3617 Kelton Court San Jose, CA 95127 $845,000 1,341 sq. ft. 9,148 sq. ft. $630
2019-01-24 Single Family 471 Mccamish Avenue San Jose, CA 95123 $899,000 1,557 sq. ft. 5,663 sq. ft. $577
2019-01-24 Single Family Ranch 55 Park Village Place San Jose, CA 95136 $999,000 2,156 sq. ft. 6,970 sq. ft. $463
2019-01-24 Single Family 2706 Los Altos Drive San Jose, CA 95121 $1,098,000 1,816 sq. ft. 6,970 sq. ft. $605
2019-01-24 Single Family 3092 Mattos Avenue San Jose, CA 95132 $1,198,000 1,104 sq. ft. 8,276 sq. ft. $1,085
2019-01-24 Single Family Contemporary 4152 Voltaire Street San Jose, CA 95148 $1,288,000 2,093 sq. ft. 2,614 sq. ft. $615
2019-01-24 Single Family 4105 Ross Avenue San Jose, CA 95124 $979,950 1,200 sq. ft. 7,405 sq. ft. $817
2019-01-24 Single Family Traditional 10211 Regan San Jose, CA 95127 $699,888 1,278 sq. ft. 5,227 sq. ft. $548
2019-01-24 Single Family 720 Widget Drive San Jose, CA 95117 $1,085,000 1,120 sq. ft. 6,970 sq. ft. $969
2019-01-24 Single Family Contemporary; Traditional 2079 Laurelei Avenue San Jose, CA 95128 $1,248,000 2,072 sq. ft. 5,663 sq. ft. $602
2019-01-24 Single Family 4867 Kingdale Drive San Jose, CA 95124 $1,399,000 1,286 sq. ft. 6,098 sq. ft. $1,088
2019-01-24 Single Family 4982 Mise Avenue San Jose, CA 95124 $1,450,000 1,672 sq. ft. 5,663 sq. ft. $867
2019-01-24 Single Family 1105 Morse Street San Jose, CA 95126 $1,600,000 1,636 sq. ft. 7,841 sq. ft. $978
2019-01-24 Single Family 3570 Donald Court San Jose, CA 95127 $825,000 1,488 sq. ft. 7,841 sq. ft. $554
2019-01-24 Single Family Contemporary; Traditional 6085 Larchmont Drive San Jose, CA 95123 $949,000 1,143 sq. ft. 6,534 sq. ft. $830
2019-01-24 Single Family 3668 Slopeview Drive San Jose, CA 95148 $1,348,890 2,072 sq. ft. 7,841 sq. ft. $651
2019-01-24 Single Family 1704 Grizilo Drive San Jose, CA 95124 $1,648,000 1,981 sq. ft. 7,405 sq. ft. $832
2019-01-24 Single Family Contemporary; Ranch 1853 Camacho Way San Jose, CA 95132 $1,275,000 1,298 sq. ft. 6,098 sq. ft. $982
2019-01-24 Single Family 273 Vineyard Drive San Jose, CA 95119 $1,120,000 1,806 sq. ft. 6,098 sq. ft. $620
2019-01-24 Single Family Ranch 2415 Neville Avenue San Jose, CA 95130 $1,350,000 1,204 sq. ft. 6,098 sq. ft. $1,121
2019-01-24 Single Family 1825 Grace Avenue San Jose, CA 95125 $1,800,000 2,496 sq. ft. 8,276 sq. ft. $721
2019-01-24 Single Family Ranch 1198 Winslow Drive San Jose, CA 95122 $649,000 824 sq. ft. 6,098 sq. ft. $788
2019-01-24 Single Family 1223 Forrestal Avenue San Jose, CA 95110 $698,000 1,006 sq. ft. 4,792 sq. ft. $694
2019-01-24 Single Family 581 Toyon Avenue San Jose, CA 95127 $699,999 1,287 sq. ft. 6,098 sq. ft. $544
2019-01-24 Single Family Contemporary 1067 Walnut Woods Court San Jose, CA 95122 $699,999 1,344 sq. ft. 5,663 sq. ft. $521
2019-01-24 Single Family Traditional 167 Brill Court San Jose, CA 95116 $705,000 1,054 sq. ft. 2,614 sq. ft. $669
2019-01-24 Single Family Ranch 3413 San Marino Avenue San Jose, CA 95127 $749,000 1,075 sq. ft. 4,792 sq. ft. $697
2019-01-24 Single Family 3915 Marlette Drive San Jose, CA 95121 $759,999 1,239 sq. ft. 3,920 sq. ft. $613
2019-01-24 Single Family 3292 Mount Everest Drive San Jose, CA 95127 $795,000 1,578 sq. ft. 6,970 sq. ft. $504